Time;durP1;ratioP1;P1;durP2;ratioP2;P2;SDS_P1;SDS_P2;PMS_P1;PMS_P2;Temp;Humidity;BMP_temperature;BMP_pressure;BME280_temperature;BME280_humidity;BME280_pressure;Samples;Min_cycle;Max_cycle;Signal;HPM_P1;HPM_P2
2021/08/01 00:00:51;;;;;;;11.15;9.40;;;16.20;99.90;;;;;;5134103;27;20031;-66
2021/08/01 00:03:17;;;;;;;10.80;9.70;;;16.10;99.90;;;;;;5148883;27;20039;-66
2021/08/01 00:05:43;;;;;;;12.90;10.15;;;16.00;99.90;;;;;;5138300;27;20045;-66
2021/08/01 00:08:09;;;;;;;10.60;9.50;;;16.00;99.90;;;;;;5132200;27;20421;-66
2021/08/01 00:10:35;;;;;;;10.95;9.85;;;15.90;99.90;;;;;;5136984;27;20027;-66
2021/08/01 00:13:01;;;;;;;13.27;10.27;;;15.90;99.90;;;;;;5143861;27;20103;-66
2021/08/01 00:15:27;;;;;;;10.68;9.57;;;15.70;99.90;;;;;;5145033;27;20034;-66
2021/08/01 00:17:53;;;;;;;11.00;10.00;;;15.70;99.90;;;;;;5137087;27;20212;-66
2021/08/01 00:20:19;;;;;;;11.63;10.52;;;15.60;99.90;;;;;;5125733;27;20041;-66
2021/08/01 00:22:44;;;;;;;11.45;10.45;;;15.60;99.90;;;;;;5145436;27;21049;-66
2021/08/01 00:25:10;;;;;;;15.63;10.57;;;15.50;99.90;;;;;;5150942;27;20043;-66
2021/08/01 00:27:36;;;;;;;14.63;10.52;;;15.40;99.90;;;;;;5140684;27;20082;-66
2021/08/01 00:30:07;;;;;;;11.82;10.50;;;15.30;99.90;;;;;;5144921;27;20035;-66
2021/08/01 00:32:33;;;;;;;12.60;10.55;;;15.30;99.90;;;;;;5142435;27;20096;-66
2021/08/01 00:34:58;;;;;;;14.00;10.63;;;15.20;99.90;;;;;;5143385;27;20050;-66
2021/08/01 00:37:25;;;;;;;11.93;10.73;;;15.20;99.90;;;;;;5134623;27;20043;-66
2021/08/01 00:39:51;;;;;;;11.38;10.23;;;15.20;99.90;;;;;;5130071;27;20039;-66
2021/08/01 00:42:17;;;;;;;11.98;9.02;;;15.20;99.90;;;;;;5140333;27;20076;-66
2021/08/01 00:44:43;;;;;;;12.18;10.32;;;15.20;99.90;;;;;;5135225;27;20039;-66
2021/08/01 00:47:10;;;;;;;17.15;10.45;;;15.20;99.90;;;;;;5147976;27;20062;-66
2021/08/01 00:49:36;;;;;;;13.00;9.57;;;15.20;99.90;;;;;;5140588;27;20041;-66
2021/08/01 00:52:05;;;;;;;11.68;9.85;;;15.20;99.90;;;;;;5144467;27;20038;-66
2021/08/01 00:54:32;;;;;;;12.10;10.45;;;15.20;99.90;;;;;;5126869;27;20038;-66
2021/08/01 00:57:00;;;;;;;13.25;10.40;;;15.20;99.90;;;;;;5138283;27;20163;-66
2021/08/01 00:59:27;;;;;;;11.73;10.05;;;15.30;99.90;;;;;;5142606;27;20530;-66
2021/08/01 01:02:31;;;;;;;13.73;10.00;;;15.30;99.90;;;;;;5147001;27;20034;-66
2021/08/01 01:05:18;;;;;;;13.30;10.52;;;15.20;99.90;;;;;;5148001;27;20693;-66
2021/08/01 01:08:01;;;;;;;11.98;10.48;;;15.30;99.90;;;;;;5153454;27;20452;-66
2021/08/01 01:10:29;;;;;;;17.75;11.85;;;15.20;99.90;;;;;;5152958;27;20083;-66
2021/08/01 01:13:04;;;;;;;12.00;10.80;;;15.20;99.90;;;;;;5149121;27;20117;-66
2021/08/01 01:15:34;;;;;;;14.40;11.20;;;15.20;99.90;;;;;;5145238;27;20039;-66
2021/08/01 01:18:03;;;;;;;12.80;11.68;;;15.20;99.90;;;;;;5146450;27;20031;-66
2021/08/01 01:20:38;;;;;;;12.30;10.90;;;15.20;99.90;;;;;;5150577;27;20376;-66
2021/08/01 01:23:35;;;;;;;12.77;10.93;;;15.20;99.90;;;;;;5152959;27;20031;-66
2021/08/01 01:26:01;;;;;;;14.38;11.88;;;15.20;99.90;;;;;;5137586;27;20046;-66
2021/08/01 01:28:44;;;;;;;12.43;11.02;;;15.20;99.90;;;;;;5146430;27;20041;-66
2021/08/01 01:31:37;;;;;;;12.70;11.38;;;15.20;99.90;;;;;;5132430;27;20042;-66
2021/08/01 01:34:05;;;;;;;;;;;15.20;99.90;;;;;;5153664;27;20125;-66
2021/08/01 01:36:31;;;;;;;14.90;12.55;;;15.20;99.90;;;;;;5150098;27;19978;-66
2021/08/01 01:39:01;;;;;;;13.15;11.77;;;15.20;99.90;;;;;;5151386;27;20706;-66
2021/08/01 01:41:27;;;;;;;14.60;12.55;;;15.10;99.90;;;;;;5139471;27;20471;-66
2021/08/01 01:43:54;;;;;;;12.27;11.13;;;15.10;99.90;;;;;;5145318;27;20038;-66
2021/08/01 01:46:20;;;;;;;13.45;11.85;;;15.10;99.90;;;;;;5142094;27;20062;-66
2021/08/01 01:48:46;;;;;;;18.63;13.35;;;15.10;99.90;;;;;;5146985;27;20047;-66
2021/08/01 01:51:13;;;;;;;13.65;12.35;;;15.00;99.90;;;;;;5154747;27;20042;-66
2021/08/01 01:53:39;;;;;;;13.93;12.50;;;15.00;99.90;;;;;;5155950;27;20030;-66
2021/08/01 01:56:07;;;;;;;15.90;12.95;;;15.10;99.90;;;;;;5149667;27;20096;-66
2021/08/01 01:58:34;;;;;;;14.70;12.68;;;15.10;99.90;;;;;;5141496;27;20034;-66
2021/08/01 02:01:00;;;;;;;13.70;12.40;;;15.00;99.90;;;;;;5142532;27;20609;-66
2021/08/01 02:03:27;;;;;;;15.23;12.60;;;15.00;99.90;;;;;;5155840;27;20035;-66
2021/08/01 02:05:54;;;;;;;13.88;12.38;;;15.00;99.90;;;;;;5150674;27;20034;-66
2021/08/01 02:08:19;;;;;;;17.13;13.82;;;14.90;99.90;;;;;;5151568;27;20426;-66
2021/08/01 02:10:52;;;;;;;13.73;12.32;;;14.90;99.90;;;;;;5149279;27;20039;-66
2021/08/01 02:13:25;;;;;;;15.43;13.18;;;14.90;99.90;;;;;;5140939;27;20041;-66
2021/08/01 02:15:55;;;;;;;14.00;12.63;;;14.80;99.90;;;;;;5138328;27;20043;-66
2021/08/01 02:18:31;;;;;;;13.70;12.30;;;14.90;99.90;;;;;;5151227;27;20026;-66
2021/08/01 02:20:58;;;;;;;13.98;11.40;;;14.80;99.90;;;;;;5137858;27;20041;-66
2021/08/01 02:23:27;;;;;;;15.27;13.68;;;14.80;99.90;;;;;;5150488;27;20035;-66
2021/08/01 02:25:54;;;;;;;14.07;12.75;;;14.80;99.90;;;;;;5143755;27;20553;-66
2021/08/01 02:28:22;;;;;;;15.50;13.07;;;14.80;99.90;;;;;;5153765;27;20039;-66
2021/08/01 02:30:49;;;;;;;14.80;13.20;;;14.80;99.90;;;;;;5154511;27;20114;-66
2021/08/01 02:33:16;;;;;;;14.90;13.30;;;14.80;99.90;;;;;;5149049;27;20042;-66
2021/08/01 02:35:43;;;;;;;14.43;13.02;;;14.80;99.90;;;;;;5151745;27;20039;-66
2021/08/01 02:38:11;;;;;;;14.38;12.75;;;14.90;99.90;;;;;;5141702;27;20031;-66
2021/08/01 02:40:39;;;;;;;15.05;12.90;;;14.90;99.90;;;;;;5154020;27;20049;-66
2021/08/01 02:43:09;;;;;;;19.25;13.73;;;14.90;99.90;;;;;;5150632;27;20031;-66
2021/08/01 02:45:36;;;;;;;14.63;12.38;;;14.90;99.90;;;;;;5139928;27;20046;-66
2021/08/01 02:48:03;;;;;;;15.88;12.65;;;14.90;99.90;;;;;;5132821;27;20047;-66
2021/08/01 02:50:30;;;;;;;13.90;12.50;;;15.00;99.90;;;;;;5147688;27;20035;-66
2021/08/01 02:53:02;;;;;;;16.02;12.27;;;15.00;99.90;;;;;;5141074;27;20042;-66
2021/08/01 02:55:29;;;;;;;17.73;13.15;;;14.90;99.90;;;;;;5144629;27;20039;-66
2021/08/01 02:57:56;;;;;;;18.08;12.65;;;14.90;99.90;;;;;;5142597;27;20512;-66
2021/08/01 03:00:23;;;;;;;18.38;13.80;;;14.90;99.90;;;;;;5140148;27;20034;-66
2021/08/01 03:02:51;;;;;;;18.73;14.02;;;14.90;99.90;;;;;;5141809;27;20585;-66
2021/08/01 03:05:18;;;;;;;17.90;13.45;;;14.80;99.90;;;;;;5130234;27;20038;-66
2021/08/01 03:07:45;;;;;;;15.80;13.27;;;14.80;99.90;;;;;;5147539;27;20031;-66
2021/08/01 03:10:13;;;;;;;15.77;13.40;;;14.80;99.90;;;;;;5118410;27;20476;-66
2021/08/01 03:12:47;;;;;;;15.43;13.82;;;14.80;99.90;;;;;;5144958;27;20086;-66
2021/08/01 03:15:13;;;;;;;15.40;13.77;;;14.80;99.90;;;;;;5148167;27;20046;-66
2021/08/01 03:17:40;;;;;;;17.38;14.40;;;14.80;99.90;;;;;;5145504;27;20059;-66
2021/08/01 03:20:07;;;;;;;17.15;14.27;;;14.80;99.90;;;;;;5143912;27;20111;-66
2021/08/01 03:22:32;;;;;;;17.17;15.45;;;14.80;99.90;;;;;;5147637;27;20066;-66
2021/08/01 03:24:58;;;;;;;17.98;15.05;;;14.80;99.90;;;;;;5139527;27;20080;-66
2021/08/01 03:27:25;;;;;;;17.25;15.13;;;14.80;99.90;;;;;;5147882;27;20031;-66
2021/08/01 03:29:50;;;;;;;17.15;14.57;;;14.80;99.90;;;;;;5153832;27;20125;-66
2021/08/01 03:32:17;;;;;;;19.42;15.27;;;14.80;99.90;;;;;;5149813;27;20416;-66
2021/08/01 03:34:43;;;;;;;20.48;16.23;;;14.90;99.90;;;;;;5145612;27;20041;-66
2021/08/01 03:37:08;;;;;;;20.60;15.23;;;14.90;99.90;;;;;;5148608;27;20038;-66
2021/08/01 03:39:37;;;;;;;19.35;15.60;;;14.90;99.90;;;;;;5141309;27;20456;-66
2021/08/01 03:42:04;;;;;;;18.60;16.17;;;14.90;99.90;;;;;;5132752;27;20030;-66
2021/08/01 03:44:30;;;;;;;20.42;16.75;;;14.90;99.90;;;;;;5135247;27;20039;-66
2021/08/01 03:46:58;;;;;;;21.00;16.05;;;14.90;99.90;;;;;;5138119;27;20121;-66
2021/08/01 03:49:23;;;;;;;24.27;17.75;;;14.90;99.90;;;;;;5147084;27;20452;-66
2021/08/01 03:51:49;;;;;;;20.48;16.65;;;14.90;99.90;;;;;;5143791;27;20028;-66
2021/08/01 03:54:15;;;;;;;25.23;19.13;;;14.90;99.90;;;;;;5148286;27;20030;-66
2021/08/01 03:56:45;;;;;;;20.27;17.77;;;15.00;99.90;;;;;;5147101;27;20442;-66
2021/08/01 03:59:11;;;;;;;26.17;20.33;;;15.00;99.90;;;;;;5150567;27;20038;-66
2021/08/01 04:01:37;;;;;;;26.08;20.08;;;15.00;99.90;;;;;;5150470;27;20045;-66
2021/08/01 04:04:03;;;;;;;27.20;21.60;;;15.10;99.90;;;;;;5140915;27;20041;-67
2021/08/01 04:06:29;;;;;;;27.98;19.70;;;15.10;99.90;;;;;;5144143;27;20045;-66
2021/08/01 04:08:56;;;;;;;24.05;20.23;;;15.10;99.90;;;;;;5143961;27;20035;-66
2021/08/01 04:11:21;;;;;;;25.27;21.38;;;15.10;99.90;;;;;;5126681;27;20054;-66
2021/08/01 04:13:47;;;;;;;27.40;21.33;;;15.20;99.90;;;;;;5148947;27;20058;-66
2021/08/01 04:16:13;;;;;;;30.02;23.63;;;15.20;99.90;;;;;;5137615;27;20027;-66
2021/08/01 04:18:39;;;;;;;33.78;25.42;;;15.20;99.90;;;;;;5146281;27;20039;-66
2021/08/01 04:21:09;;;;;;;30.05;24.35;;;15.20;99.90;;;;;;5139468;27;20038;-66
2021/08/01 04:23:36;;;;;;;31.83;24.70;;;15.30;99.90;;;;;;5132926;27;20031;-66
2021/08/01 04:26:03;;;;;;;31.50;24.77;;;15.20;99.90;;;;;;5140149;27;20077;-66
2021/08/01 04:28:29;;;;;;;34.83;26.05;;;15.30;99.90;;;;;;5145356;27;20102;-66
2021/08/01 04:30:55;;;;;;;36.55;27.67;;;15.30;99.90;;;;;;5132321;27;20170;-66
2021/08/01 04:33:20;;;;;;;39.45;27.23;;;15.40;99.90;;;;;;5134615;27;20034;-66
2021/08/01 04:35:46;;;;;;;34.47;26.67;;;15.40;99.90;;;;;;5136532;27;20364;-65
2021/08/01 04:38:12;;;;;;;34.38;26.73;;;15.40;99.90;;;;;;5146622;27;21010;-66
2021/08/01 04:40:39;;;;;;;33.40;24.73;;;15.40;99.90;;;;;;5148205;27;20070;-66
2021/08/01 04:43:05;;;;;;;35.03;27.08;;;15.40;99.90;;;;;;5142998;27;20107;-66
2021/08/01 04:45:31;;;;;;;31.00;25.25;;;15.40;99.90;;;;;;5148996;27;20047;-65
2021/08/01 04:47:57;;;;;;;34.95;27.00;;;15.50;99.90;;;;;;5140626;27;20477;-66
2021/08/01 04:50:23;;;;;;;33.80;27.13;;;15.50;99.90;;;;;;5144873;27;20064;-66
2021/08/01 04:52:52;;;;;;;35.25;27.45;;;15.60;99.90;;;;;;5140239;27;20468;-66
2021/08/01 04:55:19;;;;;;;33.22;27.23;;;15.70;99.90;;;;;;5140939;27;20043;-66
2021/08/01 04:57:44;;;;;;;36.55;26.55;;;15.70;99.90;;;;;;5138630;27;20491;-66
2021/08/01 05:00:11;;;;;;;26.25;21.20;;;15.80;99.90;;;;;;5149127;27;20102;-66
2021/08/01 05:02:37;;;;;;;33.25;27.25;;;15.80;99.90;;;;;;5142999;27;20126;-66
2021/08/01 05:05:04;;;;;;;33.50;26.02;;;15.90;99.90;;;;;;5141933;27;20342;-66
2021/08/01 05:07:30;;;;;;;34.70;28.23;;;15.90;99.90;;;;;;5140886;27;20034;-66
2021/08/01 05:09:56;;;;;;;37.17;28.55;;;15.90;99.90;;;;;;5126263;27;20046;-66
2021/08/01 05:12:21;;;;;;;33.20;28.10;;;15.90;99.90;;;;;;5129319;27;20531;-66
2021/08/01 05:14:47;;;;;;;35.75;27.55;;;15.90;99.90;;;;;;5152057;27;20039;-66
2021/08/01 05:17:13;;;;;;;36.10;28.85;;;15.90;99.90;;;;;;5127971;27;20058;-66
2021/08/01 05:19:40;;;;;;;33.60;27.77;;;16.00;99.90;;;;;;5148433;27;20039;-65
2021/08/01 05:22:06;;;;;;;33.40;27.83;;;16.00;99.90;;;;;;5124771;27;20039;-66
2021/08/01 05:24:34;;;;;;;33.95;27.38;;;16.00;99.90;;;;;;5149062;27;20033;-66
2021/08/01 05:27:02;;;;;;;31.45;25.42;;;16.00;99.90;;;;;;5142972;27;20488;-66
2021/08/01 05:29:28;;;;;;;35.90;27.05;;;16.10;99.90;;;;;;5150033;27;20027;-65
2021/08/01 05:31:54;;;;;;;37.70;27.25;;;16.10;99.90;;;;;;5145557;27;20022;-65
2021/08/01 05:34:20;;;;;;;35.30;27.52;;;16.10;99.90;;;;;;5143758;27;20411;-66
2021/08/01 05:36:46;;;;;;;32.22;27.23;;;16.20;99.90;;;;;;5143155;27;20035;-65
2021/08/01 05:39:12;;;;;;;32.25;25.65;;;16.30;99.90;;;;;;5126349;27;20084;-65
2021/08/01 05:41:37;;;;;;;30.95;25.05;;;16.30;99.90;;;;;;5143780;27;20050;-65
2021/08/01 05:44:03;;;;;;;32.53;26.83;;;16.40;99.90;;;;;;5141583;27;20034;-66
2021/08/01 05:46:29;;;;;;;32.78;27.58;;;16.40;99.90;;;;;;5153788;27;20045;-66
2021/08/01 05:48:55;;;;;;;35.05;27.75;;;16.50;99.90;;;;;;5144359;27;20039;-65
2021/08/01 05:51:20;;;;;;;32.22;26.67;;;16.50;99.90;;;;;;5144821;27;20083;-65
2021/08/01 05:53:46;;;;;;;32.10;24.95;;;16.60;99.90;;;;;;5143351;27;20059;-66
2021/08/01 05:56:12;;;;;;;33.42;26.58;;;16.70;99.90;;;;;;5139962;27;20043;-65
2021/08/01 05:58:39;;;;;;;30.08;25.20;;;16.70;99.90;;;;;;5149317;27;20050;-65
2021/08/01 06:01:10;;;;;;;28.92;24.63;;;16.80;99.90;;;;;;5142995;27;20027;-65
2021/08/01 06:03:36;;;;;;;27.58;24.58;;;16.90;99.90;;;;;;5148487;27;20031;-66
2021/08/01 06:06:12;;;;;;;33.03;25.38;;;16.90;99.90;;;;;;5131763;27;20039;-66
2021/08/01 06:08:46;;;;;;;28.88;24.67;;;17.00;99.90;;;;;;5141109;27;20038;-66
2021/08/01 06:11:14;;;;;;;27.20;23.13;;;17.00;99.90;;;;;;5142307;27;20483;-66
2021/08/01 06:13:40;;;;;;;30.98;24.33;;;17.00;99.90;;;;;;5140398;27;20030;-66
2021/08/01 06:16:07;;;;;;;27.70;24.70;;;17.00;99.90;;;;;;5139659;27;20504;-66
2021/08/01 06:18:34;;;;;;;25.40;22.35;;;17.00;99.90;;;;;;5147411;27;20031;-65
2021/08/01 06:21:16;;;;;;;26.13;23.13;;;17.00;99.90;;;;;;5121488;27;20605;-65
2021/08/01 06:23:44;;;;;;;26.90;23.17;;;17.10;99.90;;;;;;5140763;27;20035;-65
2021/08/01 06:26:12;;;;;;;25.00;21.83;;;17.00;99.90;;;;;;5143459;27;20039;-65
2021/08/01 06:28:37;;;;;;;22.45;20.05;;;17.00;99.90;;;;;;5140700;27;20035;-65
2021/08/01 06:31:05;;;;;;;24.08;20.20;;;17.10;99.90;;;;;;5119309;27;20080;-65
2021/08/01 06:33:31;;;;;;;21.00;18.80;;;17.10;99.90;;;;;;5133356;27;20560;-65
2021/08/01 06:35:57;;;;;;;22.02;19.63;;;17.20;99.90;;;;;;5149091;27;20068;-65
2021/08/01 06:38:23;;;;;;;17.50;15.73;;;17.50;99.90;;;;;;5136147;27;20069;-65
2021/08/01 06:40:49;;;;;;;15.60;14.20;;;17.90;99.90;;;;;;5153650;27;20099;-65
2021/08/01 06:43:14;;;;;;;16.02;13.65;;;18.30;99.90;;;;;;5147200;27;20474;-65
2021/08/01 06:45:40;;;;;;;14.52;13.13;;;18.80;99.90;;;;;;5154662;27;20578;-65
2021/08/01 06:48:07;;;;;;;14.75;13.35;;;18.90;99.90;;;;;;5149438;27;20118;-65
2021/08/01 06:50:35;;;;;;;13.85;12.55;;;18.80;99.90;;;;;;5130792;27;20479;-66
2021/08/01 06:53:01;;;;;;;13.68;12.30;;;18.80;99.90;;;;;;5154739;27;20039;-65
2021/08/01 06:55:27;;;;;;;12.70;11.40;;;18.70;99.90;;;;;;5150595;27;20079;-65
2021/08/01 06:57:52;;;;;;;11.27;10.18;;;18.70;99.90;;;;;;5143119;27;20038;-65
2021/08/01 07:00:20;;;;;;;10.75;9.55;;;18.80;99.90;;;;;;5154304;27;20039;-65
2021/08/01 07:02:52;;;;;;;10.13;9.15;;;19.00;99.90;;;;;;5153767;27;20107;-65
2021/08/01 07:05:18;;;;;;;10.50;9.50;;;19.00;99.90;;;;;;5147628;27;20053;-65
2021/08/01 07:07:43;;;;;;;9.77;8.93;;;18.90;99.90;;;;;;5142721;27;20027;-66
2021/08/01 07:10:09;;;;;;;10.68;9.38;;;18.80;99.90;;;;;;5154748;27;20129;-66
2021/08/01 07:12:38;;;;;;;9.27;8.38;;;18.80;99.90;;;;;;5139494;27;20472;-66
2021/08/01 07:15:04;;;;;;;7.82;7.13;;;18.90;99.90;;;;;;5133936;27;20108;-65
2021/08/01 07:17:32;;;;;;;8.38;7.57;;;19.00;99.90;;;;;;5118470;27;20043;-66
2021/08/01 07:19:57;;;;;;;7.97;7.35;;;19.10;99.90;;;;;;5137512;27;20134;-65
2021/08/01 07:22:24;;;;;;;7.32;6.63;;;19.10;99.90;;;;;;5140392;27;20049;-65
2021/08/01 07:24:49;;;;;;;7.18;6.47;;;18.90;99.90;;;;;;5135983;27;20039;-65
2021/08/01 07:27:15;;;;;;;6.80;6.18;;;18.80;99.90;;;;;;5133381;27;20457;-65
2021/08/01 07:29:40;;;;;;;7.43;6.72;;;18.70;99.90;;;;;;5151455;27;20050;-65
2021/08/01 07:32:06;;;;;;;7.50;6.90;;;18.50;99.90;;;;;;5148367;27;20065;-65
2021/08/01 07:34:32;;;;;;;7.22;6.63;;;18.40;99.90;;;;;;5136530;27;20049;-65
2021/08/01 07:36:57;;;;;;;7.88;7.25;;;18.30;99.90;;;;;;5153060;27;20464;-65
2021/08/01 07:39:23;;;;;;;7.97;7.18;;;18.20;99.90;;;;;;5153210;27;20038;-65
2021/08/01 07:41:49;;;;;;;8.30;7.55;;;18.10;99.90;;;;;;5153159;27;20035;-65
2021/08/01 07:44:14;;;;;;;8.95;8.05;;;18.00;99.90;;;;;;5117358;27;20031;-65
2021/08/01 07:46:40;;;;;;;7.70;7.00;;;17.90;99.90;;;;;;5126322;27;20177;-65
2021/08/01 07:49:05;;;;;;;8.40;7.70;;;17.90;99.90;;;;;;5140059;27;20035;-65
2021/08/01 07:51:31;;;;;;;8.68;7.88;;;17.90;99.90;;;;;;5149963;27;20461;-65
2021/08/01 07:53:56;;;;;;;8.23;7.43;;;17.90;99.90;;;;;;5133372;27;20034;-65
2021/08/01 07:56:22;;;;;;;9.13;8.32;;;17.90;99.90;;;;;;5146192;27;20087;-65
2021/08/01 07:58:48;;;;;;;8.43;7.63;;;17.90;99.90;;;;;;5142270;27;20537;-65
2021/08/01 08:01:13;;;;;;;8.68;7.88;;;18.00;99.90;;;;;;5147325;27;20031;-66
2021/08/01 08:03:42;;;;;;;8.30;7.50;;;18.00;99.90;;;;;;5148550;27;20738;-65
2021/08/01 08:06:07;;;;;;;8.65;7.85;;;18.00;99.90;;;;;;5138807;27;20035;-65
2021/08/01 08:08:33;;;;;;;7.25;6.65;;;18.00;99.90;;;;;;5135327;27;20110;-66
2021/08/01 08:10:59;;;;;;;7.57;6.88;;;18.00;99.90;;;;;;5133803;27;20103;-66
2021/08/01 08:13:24;;;;;;;4.57;4.18;;;18.00;99.90;;;;;;5141395;27;20031;-66
2021/08/01 08:15:50;;;;;;;5.00;4.25;;;17.90;99.90;;;;;;5142596;27;20057;-66
2021/08/01 08:18:17;;;;;;;3.60;3.05;;;17.90;99.90;;;;;;5132575;27;20506;-66
2021/08/01 08:20:43;;;;;;;3.13;2.83;;;17.80;99.90;;;;;;5141971;27;20031;-66
2021/08/01 08:23:09;;;;;;;3.95;2.65;;;17.80;99.90;;;;;;5147573;27;20050;-66
2021/08/01 08:25:34;;;;;;;2.80;2.60;;;17.70;99.90;;;;;;5146737;27;20042;-66
2021/08/01 08:28:02;;;;;;;3.15;2.30;;;17.70;99.90;;;;;;5140751;27;20058;-66
2021/08/01 08:30:28;;;;;;;2.05;1.85;;;17.80;99.90;;;;;;5115969;27;20066;-65
2021/08/01 08:32:54;;;;;;;3.33;2.00;;;17.80;99.90;;;;;;5142191;27;20605;-66
2021/08/01 08:35:19;;;;;;;2.40;2.20;;;17.80;99.90;;;;;;5131710;27;20035;-66
2021/08/01 08:37:47;;;;;;;2.75;2.30;;;17.90;99.90;;;;;;5149836;27;20039;-66
2021/08/01 08:40:14;;;;;;;2.90;2.70;;;18.00;99.90;;;;;;5141617;27;20042;-66
2021/08/01 08:42:45;;;;;;;2.40;2.20;;;18.00;99.90;;;;;;5148924;27;20031;-66
2021/08/01 08:45:14;;;;;;;2.92;2.42;;;18.10;99.90;;;;;;5140077;27;20031;-66
2021/08/01 08:47:42;;;;;;;2.53;2.33;;;18.20;99.90;;;;;;5139786;27;20071;-66
2021/08/01 08:50:12;;;;;;;1.88;1.77;;;18.30;99.90;;;;;;5139266;27;20046;-67
2021/08/01 08:52:38;;;;;;;2.13;2.03;;;18.40;99.90;;;;;;5144706;27;20031;-66
2021/08/01 08:55:05;;;;;;;2.17;1.98;;;18.60;99.90;;;;;;5139757;27;20084;-66
2021/08/01 08:57:36;;;;;;;1.85;1.75;;;18.60;99.90;;;;;;5147491;27;20054;-66
2021/08/01 09:00:08;;;;;;;1.95;1.75;;;18.70;99.90;;;;;;5142371;27;20039;-66
2021/08/01 09:02:34;;;;;;;2.45;1.83;;;18.60;99.90;;;;;;5144018;27;20027;-66
2021/08/01 09:05:01;;;;;;;1.80;1.70;;;18.60;99.90;;;;;;5134871;27;20061;-66
2021/08/01 09:07:27;;;;;;;2.10;2.00;;;18.60;99.90;;;;;;5134909;27;20031;-66
2021/08/01 09:09:53;;;;;;;2.20;2.00;;;18.60;99.90;;;;;;5126999;27;20030;-66
2021/08/01 09:12:20;;;;;;;2.50;2.30;;;18.60;99.90;;;;;;5138472;27;20057;-66
2021/08/01 09:14:46;;;;;;;2.35;2.08;;;18.40;99.90;;;;;;5143980;27;20030;-66
2021/08/01 09:17:12;;;;;;;2.25;2.10;;;18.40;99.90;;;;;;5137240;27;20036;-66
2021/08/01 09:19:42;;;;;;;3.28;2.10;;;18.40;99.90;;;;;;5137148;27;20043;-66
2021/08/01 09:22:22;;;;;;;1.85;1.75;;;18.40;99.90;;;;;;5134677;27;20046;-66
2021/08/01 09:24:51;;;;;;;2.10;2.00;;;18.40;99.90;;;;;;5148951;27;20039;-66
2021/08/01 09:27:30;;;;;;;2.45;2.25;;;18.40;99.90;;;;;;5144493;27;20045;-66
2021/08/01 09:29:56;;;;;;;2.65;2.45;;;18.50;99.90;;;;;;5140650;27;20487;-66
2021/08/01 09:32:24;;;;;;;3.45;2.80;;;18.50;99.90;;;;;;5124201;27;20039;-66
2021/08/01 09:34:50;;;;;;;3.05;2.67;;;18.70;99.90;;;;;;5139386;27;20026;-66
2021/08/01 09:37:30;;;;;;;2.63;2.42;;;18.80;99.90;;;;;;5131325;27;20071;-66
2021/08/01 09:40:08;;;;;;;2.95;2.75;;;18.90;99.90;;;;;;5146158;27;20042;-66
2021/08/01 09:42:45;;;;;;;2.80;2.60;;;18.90;99.90;;;;;;5145498;27;20034;-66
2021/08/01 09:45:13;;;;;;;2.80;2.60;;;18.80;99.90;;;;;;5148525;27;20110;-66
2021/08/01 09:47:39;;;;;;;3.35;2.78;;;18.70;99.90;;;;;;5149789;27;20506;-66
2021/08/01 09:50:06;;;;;;;3.30;3.00;;;18.60;99.90;;;;;;5148573;27;20031;-66
2021/08/01 09:52:32;;;;;;;3.28;3.08;;;18.60;99.90;;;;;;5123395;27;20035;-66
2021/08/01 09:54:57;;;;;;;3.33;3.13;;;18.60;99.90;;;;;;5143770;27;20499;-66
2021/08/01 09:57:23;;;;;;;3.50;3.20;;;18.80;99.90;;;;;;5147656;27;20042;-66
2021/08/01 10:00:02;;;;;;;2.10;1.90;;;18.90;99.90;;;;;;5144110;27;20391;-66
2021/08/01 10:02:39;;;;;;;2.35;2.15;;;19.10;99.90;;;;;;5142679;22;20051;-67
2021/08/01 10:05:18;;;;;;;1.20;1.10;;;19.10;99.90;;;;;;5112695;28;20512;-67
2021/08/01 10:07:46;;;;;;;1.05;0.98;;;19.20;99.90;;;;;;5107781;28;20044;-67
2021/08/01 10:10:20;;;;;;;1.55;1.10;;;19.20;99.90;;;;;;5103074;28;20097;-67
2021/08/01 10:12:48;;;;;;;1.00;1.00;;;19.10;99.90;;;;;;5108988;28;20027;-68
2021/08/01 10:15:15;;;;;;;1.30;1.10;;;19.10;99.90;;;;;;5109008;28;20039;-68
2021/08/01 10:17:41;;;;;;;2.05;1.13;;;19.10;99.90;;;;;;5107945;28;20534;-68
2021/08/01 10:20:07;;;;;;;1.48;1.20;;;19.10;99.90;;;;;;5108809;28;20066;-68
2021/08/01 10:22:37;;;;;;;1.52;1.42;;;19.30;99.90;;;;;;5110036;27;20114;-67
2021/08/01 10:25:11;;;;;;;1.63;1.52;;;19.50;99.90;;;;;;5106349;28;20477;-67
2021/08/01 10:27:43;;;;;;;2.33;1.27;;;19.70;99.90;;;;;;5107288;28;20053;-67
2021/08/01 10:30:12;;;;;;;2.65;1.60;;;20.20;99.90;;;;;;5108669;28;20046;-67
2021/08/01 10:32:44;;;;;;;2.13;1.63;;;20.50;99.90;;;;;;5108672;28;20484;-67
2021/08/01 10:35:16;;;;;;;1.70;1.60;;;20.70;99.90;;;;;;5108635;28;20040;-67
2021/08/01 10:37:47;;;;;;;1.42;1.33;;;20.70;99.90;;;;;;5109944;28;20042;-67
2021/08/01 10:40:25;;;;;;;2.17;1.30;;;20.80;99.90;;;;;;5110523;28;20031;-67
2021/08/01 10:42:58;;;;;;;1.05;0.95;;;20.50;99.90;;;;;;5109340;28;20472;-68
2021/08/01 10:45:24;;;;;;;2.63;1.15;;;20.30;99.90;;;;;;5113623;27;20031;-67
2021/08/01 10:47:51;;;;;;;0.90;0.80;;;20.20;99.90;;;;;;5111497;28;20032;-66
2021/08/01 10:50:22;;;;;;;2.15;1.08;;;20.50;99.90;;;;;;5111052;28;20078;-67
2021/08/01 10:52:48;;;;;;;1.15;0.90;;;20.30;99.90;;;;;;5111103;28;20130;-67
2021/08/01 10:55:23;;;;;;;1.52;1.20;;;20.30;99.90;;;;;;5105623;28;20165;-67
2021/08/01 10:58:13;;;;;;;1.67;1.02;;;20.50;99.90;;;;;;5109261;28;20061;-67
2021/08/01 11:01:01;;;;;;;2.25;1.10;;;20.30;99.90;;;;;;5108912;28;20035;-67
2021/08/01 11:03:33;;;;;;;1.13;1.02;;;20.40;99.90;;;;;;5097308;28;20073;-67
2021/08/01 11:06:02;;;;;;;1.60;1.15;;;20.50;99.90;;;;;;5098660;28;20130;-67
2021/08/01 11:08:28;;;;;;;1.30;1.20;;;20.60;99.90;;;;;;5104585;27;20027;-66
2021/08/01 11:11:09;;;;;;;1.20;1.10;;;20.90;99.90;;;;;;5103490;28;20546;-67
2021/08/01 11:13:38;;;;;;;1.93;1.30;;;21.10;99.90;;;;;;5112165;28;20032;-66
2021/08/01 11:16:06;;;;;;;1.75;1.15;;;21.50;99.90;;;;;;5099859;28;20048;-68
2021/08/01 11:18:33;;;;;;;1.52;1.20;;;21.20;99.90;;;;;;5107421;28;20032;-67
2021/08/01 11:21:03;;;;;;;2.78;1.98;;;21.30;99.90;;;;;;5112192;28;20032;-67
2021/08/01 11:23:45;;;;;;;1.90;1.60;;;21.20;99.90;;;;;;5112100;28;20040;-67
2021/08/01 11:26:19;;;;;;;;;;;21.10;99.90;;;;;;5111122;28;20093;-67
2021/08/01 11:29:02;;;;;;;1.10;1.00;;;21.10;99.90;;;;;;5102632;28;19943;-68
2021/08/01 11:31:28;;;;;;;1.52;0.80;;;21.30;99.90;;;;;;5112102;28;20474;-67
2021/08/01 11:33:55;;;;;;;1.00;0.90;;;21.40;99.90;;;;;;5110900;28;20028;-67
2021/08/01 11:36:22;;;;;;;1.55;0.82;;;21.80;99.90;;;;;;5111150;28;20035;-68
2021/08/01 11:38:48;;;;;;;1.50;0.70;;;21.90;99.90;;;;;;5104402;28;20036;-66
2021/08/01 11:41:35;;;;;;;0.75;0.70;;;21.90;99.90;;;;;;5110051;28;20115;-67
2021/08/01 11:44:13;;;;;;;0.60;0.60;;;21.50;99.90;;;;;;5107741;28;20141;-67
2021/08/01 11:46:45;;;;;;;1.20;0.60;;;21.40;99.90;;;;;;5108996;28;20047;-67
2021/08/01 11:49:12;;;;;;;1.42;0.77;;;21.40;99.90;;;;;;5098877;28;20032;-67
2021/08/01 11:51:43;;;;;;;1.23;0.82;;;21.10;99.90;;;;;;5097985;28;20461;-67
2021/08/01 11:54:11;;;;;;;1.58;0.80;;;21.40;99.90;;;;;;5107795;28;20476;-68
2021/08/01 11:56:40;;;;;;;1.50;0.80;;;21.60;99.90;;;;;;5107419;28;20043;-67
2021/08/01 11:59:12;;;;;;;1.20;0.60;;;21.40;99.90;;;;;;5107431;28;20050;-67
2021/08/01 12:01:39;;;;;;;1.05;0.80;;;21.30;99.90;;;;;;5103411;28;20044;-67
2021/08/01 12:04:09;;;;;;;0.68;0.60;;;21.00;99.90;;;;;;5109570;28;20205;-67
2021/08/01 12:06:39;;;;;;;0.80;0.55;;;21.20;99.90;;;;;;5108816;28;20040;-67
2021/08/01 12:09:37;;;;;;;1.38;0.63;;;20.90;99.90;;;;;;5108604;28;20035;-68
2021/08/01 12:12:05;;;;;;;0.60;0.57;;;21.00;99.90;;;;;;5110537;28;20412;-68
2021/08/01 12:14:38;;;;;;;1.20;0.80;;;21.00;99.90;;;;;;5106863;28;20503;-67
2021/08/01 12:17:06;;;;;;;1.25;0.65;;;20.90;99.90;;;;;;5104872;28;20056;-67
2021/08/01 12:19:37;;;;;;;0.85;0.60;;;20.80;99.90;;;;;;5102315;28;20032;-67
2021/08/01 12:22:10;;;;;;;3.63;0.70;;;20.60;99.90;;;;;;5111275;28;20110;-67
2021/08/01 12:24:43;;;;;;;1.80;0.93;;;20.50;99.90;;;;;;5109832;28;20047;-67
2021/08/01 12:27:13;;;;;;;3.10;1.00;;;20.40;99.90;;;;;;5093384;28;20043;-67
2021/08/01 12:30:09;;;;;;;2.28;1.10;;;20.30;99.90;;;;;;5110046;28;20457;-67
2021/08/01 12:32:42;;;;;;;2.33;1.10;;;20.10;99.90;;;;;;5108670;28;20484;-67
2021/08/01 12:35:12;;;;;;;3.05;1.42;;;19.80;99.90;;;;;;5107112;28;20040;-67
2021/08/01 12:38:02;;;;;;;3.00;1.58;;;19.70;99.90;;;;;;5110913;28;20096;-67
2021/08/01 12:40:42;;;;;;;2.38;1.40;;;19.70;99.90;;;;;;5109421;28;20480;-67
2021/08/01 12:43:17;;;;;;;3.33;1.55;;;19.70;99.90;;;;;;5111065;28;20040;-67